createdAt,value
2023-01-19T00:00:46.415Z,97149.78
2023-01-19T00:03:16.479Z,97166.06
2023-01-19T00:05:44.123Z,97159.09
2023-01-19T00:08:17.714Z,97160.75
2023-01-19T00:10:51.240Z,97169.28
2023-01-19T00:13:17.963Z,97158.06
2023-01-19T00:15:44.623Z,97162.41
2023-01-19T00:18:11.374Z,97166.81
2023-01-19T00:20:39.015Z,97172.00
2023-01-19T00:23:07.701Z,97173.78
2023-01-19T00:25:34.735Z,97178.06
2023-01-19T00:28:02.071Z,97178.13
2023-01-19T00:30:29.689Z,97170.41
2023-01-19T00:32:56.954Z,97178.97
2023-01-19T00:35:23.612Z,97178.94
2023-01-19T00:37:50.254Z,97176.34
2023-01-19T00:40:17.323Z,97175.50
2023-01-19T00:42:44.699Z,97178.94
2023-01-19T00:45:17.214Z,97182.41
2023-01-19T00:47:43.778Z,97180.75
2023-01-19T00:50:12.557Z,97185.84
2023-01-19T00:52:40.737Z,97190.06
2023-01-19T00:55:08.694Z,97196.88
2023-01-19T00:57:35.429Z,97182.34
2023-01-19T01:00:02.418Z,97191.72
2023-01-19T01:02:29.402Z,97193.41
2023-01-19T01:04:56.942Z,97192.53
2023-01-19T01:07:24.693Z,97191.66
2023-01-19T01:09:51.471Z,97195.97
2023-01-19T01:12:18.123Z,97201.94
2023-01-19T01:14:44.890Z,97206.31
2023-01-19T01:17:11.753Z,97209.66
2023-01-19T01:19:38.810Z,97208.81
2023-01-19T01:22:05.530Z,97213.88
2023-01-19T01:24:32.860Z,97218.16
2023-01-19T01:26:59.682Z,97214.69
2023-01-19T01:29:26.744Z,97222.38
2023-01-19T01:31:53.617Z,97219.88
2023-01-19T01:34:20.348Z,97213.19
2023-01-19T01:36:47.051Z,97212.41
2023-01-19T01:39:13.689Z,97210.84
2023-01-19T01:41:40.329Z,97219.38
2023-01-19T01:44:49.900Z,97218.53
2023-01-19T01:47:41.970Z,97216.81
2023-01-19T01:50:20.472Z,97218.47
2023-01-19T01:53:06.593Z,97221.03
2023-01-19T01:55:45.695Z,97220.06
2023-01-19T01:58:13.646Z,97223.44
2023-01-19T02:00:59.729Z,97219.97
2023-01-19T02:03:27.417Z,97215.69
2023-01-19T02:06:00.196Z,97215.72
2023-01-19T02:09:01.761Z,97214.06
2023-01-19T02:11:48.842Z,97206.22
2023-01-19T02:14:15.443Z,97213.09
2023-01-19T02:16:42.868Z,97216.44
2023-01-19T02:19:22.718Z,97207.88
2023-01-19T02:22:11.906Z,97194.97
2023-01-19T02:24:38.704Z,97196.75
2023-01-19T02:27:07.190Z,97190.91
2023-01-19T02:29:34.811Z,97205.44
2023-01-19T02:32:03.436Z,97207.16
2023-01-19T02:34:30.264Z,97204.59
2023-01-19T02:37:00.173Z,97202.81
2023-01-19T02:39:36.901Z,97204.50
2023-01-19T02:42:08.415Z,97206.13
2023-01-19T02:44:36.577Z,97212.91
2023-01-19T02:47:04.065Z,97206.19
2023-01-19T02:49:31.286Z,97201.09
2023-01-19T02:51:59.220Z,97208.06
2023-01-19T02:54:42.230Z,97203.03
2023-01-19T02:57:23.684Z,97196.31
2023-01-19T03:00:21.753Z,97194.66
2023-01-19T03:03:10.641Z,97198.88
2023-01-19T03:06:02.774Z,97192.75
2023-01-19T03:08:38.790Z,97193.59
2023-01-19T03:11:09.449Z,97191.94
2023-01-19T03:13:56.582Z,97193.59
2023-01-19T03:16:42.080Z,97197.00
2023-01-19T03:19:15.658Z,97196.06
2023-01-19T03:21:47.214Z,97184.00
2023-01-19T03:24:16.296Z,97184.06
2023-01-19T03:26:47.779Z,97177.22
2023-01-19T03:29:15.881Z,97175.44
2023-01-19T03:31:46.223Z,97178.06
2023-01-19T03:34:15.312Z,97185.84
2023-01-19T03:36:50.985Z,97189.31
2023-01-19T03:39:25.806Z,97192.75
2023-01-19T03:41:56.771Z,97194.50
2023-01-19T03:44:26.227Z,97194.56
2023-01-19T03:46:53.533Z,97195.47
2023-01-19T03:49:20.278Z,97194.59
2023-01-19T03:51:47.316Z,97192.94
2023-01-19T03:54:14.266Z,97186.09
2023-01-19T03:56:40.875Z,97182.66
2023-01-19T03:59:07.684Z,97186.09
2023-01-19T04:01:34.436Z,97193.88
2023-01-19T04:04:01.220Z,97190.44
2023-01-19T04:06:28.473Z,97200.72
2023-01-19T04:08:55.323Z,97190.41
2023-01-19T04:11:22.124Z,97185.31
2023-01-19T04:13:48.883Z,97192.19
2023-01-19T04:16:20.175Z,97186.22
2023-01-19T04:18:47.390Z,97193.03
2023-01-19T04:21:14.391Z,97190.53
2023-01-19T04:23:41.094Z,97196.47
2023-01-19T04:26:08.712Z,97196.50
2023-01-19T04:28:37.291Z,97194.78
2023-01-19T04:31:05.555Z,97205.16
2023-01-19T04:33:32.665Z,97207.75
2023-01-19T04:35:59.492Z,97214.59
2023-01-19T04:38:26.313Z,97218.84
2023-01-19T04:40:54.170Z,97223.97
2023-01-19T04:43:21.983Z,97213.72
2023-01-19T04:45:49.358Z,97211.97
2023-01-19T04:48:18.962Z,97211.97
2023-01-19T04:50:46.124Z,97200.81
2023-01-19T04:53:13.879Z,97203.38
2023-01-19T04:55:40.964Z,97194.78
2023-01-19T04:58:08.263Z,97196.47
2023-01-19T05:00:35.107Z,97195.63
2023-01-19T05:03:02.811Z,97195.66
2023-01-19T05:05:29.869Z,97189.66
2023-01-19T05:07:56.621Z,97196.50
2023-01-19T05:10:23.999Z,97191.34
2023-01-19T05:12:51.448Z,97195.66
2023-01-19T05:15:18.319Z,97186.22
2023-01-19T05:17:45.221Z,97194.81
2023-01-19T05:20:15.922Z,97192.25
2023-01-19T05:22:42.878Z,97193.06
2023-01-19T05:25:09.841Z,97186.22
2023-01-19T05:27:37.413Z,97188.78
2023-01-19T05:30:05.887Z,97174.19
2023-01-19T05:32:32.688Z,97190.50
2023-01-19T05:34:59.356Z,97190.47
2023-01-19T05:37:26.180Z,97203.31
2023-01-19T05:39:53.232Z,97205.09
2023-01-19T05:42:20.055Z,97205.94
2023-01-19T05:44:46.743Z,97199.06
2023-01-19T05:47:13.455Z,97204.22
2023-01-19T05:49:40.131Z,97202.47
2023-01-19T05:52:06.825Z,97201.66
2023-01-19T05:54:33.505Z,97204.22
2023-01-19T05:57:00.144Z,97211.09
2023-01-19T05:59:26.844Z,97210.16
2023-01-19T06:01:54.264Z,97217.06
2023-01-19T06:04:21.522Z,97220.50
2023-01-19T06:06:51.761Z,97211.97
2023-01-19T06:09:18.868Z,97215.41
2023-01-19T06:11:46.835Z,97215.41
2023-01-19T06:14:13.729Z,97221.47
2023-01-19T06:16:40.634Z,97227.41
2023-01-19T06:19:07.683Z,97236.88
2023-01-19T06:21:34.673Z,97236.03
2023-01-19T06:24:01.350Z,97242.91
2023-01-19T06:26:28.144Z,97242.84
2023-01-19T06:28:55.648Z,97248.00
2023-01-19T06:31:22.746Z,97252.28
2023-01-19T06:33:50.203Z,97258.34
2023-01-19T06:36:16.804Z,97239.50
2023-01-19T06:38:43.468Z,97246.34
2023-01-19T06:41:10.093Z,97249.78
2023-01-19T06:43:36.817Z,97256.63
2023-01-19T06:46:04.395Z,97260.03
2023-01-19T06:48:31.076Z,97274.56
2023-01-19T06:50:59.703Z,97280.50
2023-01-19T06:53:28.203Z,97283.91
2023-01-19T06:56:02.086Z,97282.16
2023-01-19T06:58:30.314Z,97282.16
2023-01-19T07:01:05.139Z,97283.88
2023-01-19T07:03:32.226Z,97273.53
2023-01-19T07:06:02.451Z,97275.25
2023-01-19T07:08:30.103Z,97275.19
2023-01-19T07:11:25.125Z,97278.72
2023-01-19T07:13:51.926Z,97271.81
2023-01-19T07:16:19.134Z,97269.22
2023-01-19T07:18:49.090Z,97265.81
2023-01-19T07:21:16.187Z,97269.25
2023-01-19T07:23:43.596Z,97272.75
2023-01-19T07:26:10.946Z,97264.19
2023-01-19T07:28:37.773Z,97278.81
2023-01-19T07:31:05.590Z,97277.97
2023-01-19T07:33:32.449Z,97278.88
2023-01-19T07:35:59.327Z,97285.75
2023-01-19T07:38:26.298Z,97284.09
2023-01-19T07:41:00.407Z,97286.69
2023-01-19T07:43:26.946Z,97284.13
2023-01-19T07:45:57.203Z,97280.72
2023-01-19T07:48:24.327Z,97289.28
2023-01-19T07:50:51.301Z,97288.44
2023-01-19T07:53:18.123Z,97289.31
2023-01-19T07:55:45.151Z,97287.56
2023-01-19T07:58:11.817Z,97291.91
2023-01-19T08:00:39.983Z,97297.94
2023-01-19T08:03:06.782Z,97293.69
2023-01-19T08:05:33.992Z,97293.66
2023-01-19T08:08:00.857Z,97292.84
2023-01-19T08:10:28.946Z,97298.00
2023-01-19T08:12:57.164Z,97307.47
2023-01-19T08:15:25.054Z,97302.31
2023-01-19T08:18:01.925Z,97298.03
2023-01-19T08:20:30.274Z,97305.81
2023-01-19T08:23:00.686Z,97308.34
2023-01-19T08:25:32.804Z,97307.53
2023-01-19T08:28:00.235Z,97310.97
2023-01-19T08:30:29.062Z,97312.69
2023-01-19T08:33:06.917Z,97323.91
2023-01-19T08:35:38.717Z,97311.03
2023-01-19T08:38:07.096Z,97322.25
2023-01-19T08:40:36.569Z,97324.00
2023-01-19T08:43:08.053Z,97325.72
2023-01-19T08:45:36.518Z,97313.69
2023-01-19T08:48:04.318Z,97311.94
2023-01-19T08:50:33.145Z,97312.81
2023-01-19T08:53:02.529Z,97317.94
2023-01-19T08:55:30.157Z,97309.34
2023-01-19T08:58:00.278Z,97312.78
2023-01-19T09:00:27.803Z,97315.34
2023-01-19T09:02:54.848Z,97323.06
2023-01-19T09:05:21.844Z,97315.28
2023-01-19T09:07:49.037Z,97323.03
2023-01-19T09:10:19.341Z,97326.50
2023-01-19T09:12:46.711Z,97324.69
2023-01-19T09:15:16.501Z,97315.19
2023-01-19T09:17:43.366Z,97313.44
2023-01-19T09:20:10.870Z,97306.50
2023-01-19T09:22:39.774Z,97305.66
2023-01-19T09:25:08.145Z,97307.28
2023-01-19T09:27:36.202Z,97301.06
2023-01-19T09:30:04.510Z,97303.53
2023-01-19T09:32:31.333Z,97310.28
2023-01-19T09:34:58.165Z,97302.50
2023-01-19T09:37:24.971Z,97303.16
2023-01-19T09:39:51.764Z,97306.59
2023-01-19T09:42:28.028Z,97304.84
2023-01-19T09:44:54.825Z,97308.44
2023-01-19T09:47:28.399Z,97293.53
2023-01-19T09:50:01.585Z,97287.44
2023-01-19T09:52:31.825Z,97294.94
2023-01-19T09:54:59.403Z,97300.47
2023-01-19T09:57:30.579Z,97289.94
2023-01-19T10:00:00.016Z,97293.25
2023-01-19T10:02:26.583Z,97294.00
2023-01-19T10:05:00.412Z,97282.81
2023-01-19T10:07:34.324Z,97294.81
2023-01-19T10:10:12.486Z,97292.00
2023-01-19T10:13:09.878Z,97292.84
2023-01-19T10:16:01.770Z,97287.59
2023-01-19T10:18:37.187Z,97278.91
2023-01-19T10:21:05.561Z,97286.78
2023-01-19T10:23:39.588Z,97279.03
2023-01-19T10:26:10.305Z,97277.38
2023-01-19T10:28:38.578Z,97282.59
2023-01-19T10:31:06.647Z,97282.50
2023-01-19T10:33:35.415Z,97286.03
2023-01-19T10:36:07.160Z,97291.97
2023-01-19T10:38:35.489Z,97288.47
2023-01-19T10:41:07.724Z,97291.69
2023-01-19T10:43:34.725Z,97287.25
2023-01-19T10:46:31.477Z,97290.81
2023-01-19T10:48:58.235Z,97295.16
2023-01-19T10:51:25.076Z,97291.47
2023-01-19T10:54:03.489Z,97298.19
2023-01-19T10:56:36.576Z,97273.66
2023-01-19T10:59:05.632Z,97290.88
2023-01-19T11:01:37.083Z,97288.28
2023-01-19T11:04:27.548Z,97284.81
2023-01-19T11:07:14.028Z,97290.25
2023-01-19T11:09:40.688Z,97297.97
2023-01-19T11:12:17.378Z,97304.13
2023-01-19T11:14:44.192Z,97306.31
2023-01-19T11:17:19.873Z,97292.25
2023-01-19T11:19:56.005Z,97297.69
2023-01-19T11:22:27.940Z,97302.47
2023-01-19T11:24:59.179Z,97296.97
2023-01-19T11:27:26.759Z,97295.66
2023-01-19T11:30:18.812Z,97303.00
2023-01-19T11:32:46.780Z,97306.53
2023-01-19T11:35:32.066Z,97305.97
2023-01-19T11:38:13.994Z,97283.22
2023-01-19T11:40:42.370Z,97286.94
2023-01-19T11:43:13.803Z,97287.69
2023-01-19T11:45:41.242Z,97290.16
2023-01-19T11:48:20.089Z,97287.72
2023-01-19T11:50:49.403Z,97278.31
2023-01-19T11:53:34.061Z,97282.69
2023-01-19T11:56:08.692Z,97275.22
2023-01-19T11:58:42.041Z,97280.50
2023-01-19T12:01:25.004Z,97277.00
2023-01-19T12:03:59.693Z,97281.59
2023-01-19T12:06:32.232Z,97272.84
2023-01-19T12:09:02.245Z,97283.50
2023-01-19T12:11:35.045Z,97287.69
2023-01-19T12:14:02.648Z,97284.16
2023-01-19T12:16:33.384Z,97283.97
2023-01-19T12:19:05.574Z,97275.25
2023-01-19T12:21:32.307Z,97270.06
2023-01-19T12:24:16.868Z,97277.63
2023-01-19T12:26:52.029Z,97269.34
2023-01-19T12:29:22.124Z,97270.28
2023-01-19T12:32:14.160Z,97277.34
2023-01-19T12:34:42.405Z,97283.59
2023-01-19T12:37:27.327Z,97280.50
2023-01-19T12:39:56.815Z,97282.41
2023-01-19T12:42:25.005Z,97284.97
2023-01-19T12:45:13.881Z,97280.56
2023-01-19T12:47:53.202Z,97285.06
2023-01-19T12:50:23.583Z,97280.75
2023-01-19T12:53:00.141Z,97280.75
2023-01-19T12:55:39.141Z,97284.44
2023-01-19T12:58:14.273Z,97286.91
2023-01-19T13:00:46.604Z,97292.22
2023-01-19T13:03:16.183Z,97290.75
2023-01-19T13:05:42.819Z,97287.44
2023-01-19T13:08:09.598Z,97287.53
2023-01-19T13:11:07.207Z,97280.63
2023-01-19T13:13:42.427Z,97296.34
2023-01-19T13:16:18.223Z,97298.91
2023-01-19T13:19:07.039Z,97294.69
2023-01-19T13:21:39.852Z,97294.75
2023-01-19T13:24:07.992Z,97293.00
2023-01-19T13:26:40.231Z,97303.38
2023-01-19T13:29:11.068Z,97300.84
2023-01-19T13:31:40.988Z,97300.75
2023-01-19T13:34:19.439Z,97302.47
2023-01-19T13:36:50.327Z,97302.50
2023-01-19T13:39:28.668Z,97305.97
2023-01-19T13:41:59.603Z,97314.66
2023-01-19T13:44:39.453Z,97306.13
2023-01-19T13:47:12.041Z,97323.28
2023-01-19T13:49:45.472Z,97311.22
2023-01-19T13:52:20.905Z,97318.97
2023-01-19T13:55:01.724Z,97316.31
2023-01-19T13:57:49.812Z,97326.75
2023-01-19T14:00:31.323Z,97326.75
2023-01-19T14:03:13.778Z,97324.16
2023-01-19T14:05:43.323Z,97327.66
2023-01-19T14:08:13.057Z,97332.88
2023-01-19T14:10:48.481Z,97337.25
2023-01-19T14:13:19.590Z,97334.72
2023-01-19T14:15:49.022Z,97337.25
2023-01-19T14:18:18.326Z,97337.22
2023-01-19T14:20:56.744Z,97344.13
2023-01-19T14:23:38.720Z,97342.44
2023-01-19T14:26:06.502Z,97347.63
2023-01-19T14:28:36.154Z,97351.91
2023-01-19T14:31:18.751Z,97345.88
2023-01-19T14:33:47.389Z,97348.50
2023-01-19T14:36:16.780Z,97352.00
2023-01-19T14:38:46.025Z,97350.25
2023-01-19T14:41:22.934Z,97355.44
2023-01-19T14:43:49.644Z,97360.63
2023-01-19T14:46:20.355Z,97355.47
2023-01-19T14:48:53.396Z,97365.88
2023-01-19T14:51:23.557Z,97368.44
2023-01-19T14:53:56.001Z,97371.06
2023-01-19T14:56:30.743Z,97377.97
2023-01-19T14:58:59.424Z,97377.13
2023-01-19T15:01:31.940Z,97383.16
2023-01-19T15:03:58.846Z,97387.47
2023-01-19T15:06:26.780Z,97387.56
2023-01-19T15:08:54.483Z,97389.25
2023-01-19T15:11:30.054Z,97393.59
2023-01-19T15:13:56.793Z,97392.75
2023-01-19T15:16:24.471Z,97391.03
2023-01-19T15:18:51.423Z,97395.34
2023-01-19T15:21:20.348Z,97392.75
2023-01-19T15:23:47.973Z,97393.63
2023-01-19T15:26:20.918Z,97396.22
2023-01-19T15:28:51.352Z,97400.53
2023-01-19T15:31:21.087Z,97390.22
2023-01-19T15:33:48.267Z,97405.75
2023-01-19T15:36:20.697Z,97396.25
2023-01-19T15:38:48.206Z,97400.56
2023-01-19T15:41:30.208Z,97410.03
2023-01-19T15:43:57.196Z,97404.88
2023-01-19T15:46:26.267Z,97412.63
2023-01-19T15:48:53.856Z,97410.06
2023-01-19T15:51:22.998Z,97413.50
2023-01-19T15:53:50.394Z,97413.50
2023-01-19T15:56:19.873Z,97425.56
2023-01-19T15:58:47.210Z,97417.81
2023-01-19T16:01:16.458Z,97422.13
2023-01-19T16:03:43.792Z,97432.44
2023-01-19T16:06:10.765Z,97426.41
2023-01-19T16:08:37.873Z,97432.44
2023-01-19T16:11:12.946Z,97428.13
2023-01-19T16:13:40.176Z,97428.13
2023-01-19T16:16:16.313Z,97435.03
2023-01-19T16:18:43.171Z,97442.78
2023-01-19T16:21:09.897Z,97450.56
2023-01-19T16:23:36.635Z,97442.78
2023-01-19T16:26:10.386Z,97453.13
2023-01-19T16:28:38.175Z,97454.84
2023-01-19T16:31:04.950Z,97461.75
2023-01-19T16:33:31.764Z,97461.72
2023-01-19T16:35:58.472Z,97460.88
2023-01-19T16:38:25.247Z,97463.44
2023-01-19T16:40:51.902Z,97468.66
2023-01-19T16:43:18.820Z,97472.06
2023-01-19T16:46:01.081Z,97477.25
2023-01-19T16:48:28.492Z,97458.31
2023-01-19T16:51:03.686Z,97469.47
2023-01-19T16:53:31.751Z,97480.69
2023-01-19T16:55:58.534Z,97479.84
2023-01-19T16:58:25.239Z,97482.41
2023-01-19T17:00:52.205Z,97481.56
2023-01-19T17:03:18.936Z,97479.84
2023-01-19T17:05:50.708Z,97492.75
2023-01-19T17:08:20.766Z,97484.13
2023-01-19T17:10:48.132Z,97482.41
2023-01-19T17:13:14.796Z,97491.91
2023-01-19T17:15:41.691Z,97489.31
2023-01-19T17:18:10.191Z,97484.13
2023-01-19T17:20:37.171Z,97476.38
2023-01-19T17:23:03.997Z,97484.13
2023-01-19T17:25:30.763Z,97489.31
2023-01-19T17:28:01.307Z,97492.78
2023-01-19T17:30:28.132Z,97499.63
2023-01-19T17:32:54.938Z,97503.09
2023-01-19T17:35:21.742Z,97499.63
2023-01-19T17:37:48.758Z,97505.66
2023-01-19T17:40:15.911Z,97510.84
2023-01-19T17:42:42.751Z,97509.13
2023-01-19T17:45:11.265Z,97515.16
2023-01-19T17:47:38.761Z,97516.84
2023-01-19T17:50:20.567Z,97509.97
2023-01-19T17:52:47.147Z,97527.22
2023-01-19T17:55:13.998Z,97520.31
2023-01-19T17:57:40.683Z,97526.38
2023-01-19T18:00:08.471Z,97530.69
2023-01-19T18:02:35.087Z,97528.94
2023-01-19T18:05:03.044Z,97532.38
2023-01-19T18:07:30.208Z,97523.78
2023-01-19T18:09:58.560Z,97530.69
2023-01-19T18:12:26.272Z,97532.41
2023-01-19T18:14:52.922Z,97526.31
2023-01-19T18:17:19.843Z,97534.13
2023-01-19T18:19:46.557Z,97537.56
2023-01-19T18:22:13.232Z,97539.28
2023-01-19T18:24:40.024Z,97537.56
2023-01-19T18:27:06.758Z,97540.13
2023-01-19T18:29:33.432Z,97543.59
2023-01-19T18:32:00.095Z,97543.63
2023-01-19T18:34:26.817Z,97539.28
2023-01-19T18:36:53.459Z,97543.59
2023-01-19T18:39:20.152Z,97545.34
2023-01-19T18:41:46.821Z,97545.34
2023-01-19T18:44:13.458Z,97541.88
2023-01-19T18:46:40.188Z,97545.34
2023-01-19T18:49:07.090Z,97542.72
2023-01-19T18:51:33.930Z,97550.47
2023-01-19T18:54:00.638Z,97546.19
2023-01-19T18:56:27.357Z,97547.91
2023-01-19T18:58:54.178Z,97553.94
2023-01-19T19:01:26.699Z,97549.63
2023-01-19T19:03:55.176Z,97554.81
2023-01-19T19:06:23.117Z,97551.34
2023-01-19T19:08:51.526Z,97554.78
2023-01-19T19:11:19.876Z,97553.09
2023-01-19T19:13:46.678Z,97564.28
2023-01-19T19:16:13.851Z,97555.69
2023-01-19T19:18:40.522Z,97562.56
2023-01-19T19:21:09.414Z,97560.84
2023-01-19T19:23:37.128Z,97563.44
2023-01-19T19:26:09.834Z,97566.03
2023-01-19T19:28:40.686Z,97570.31
2023-01-19T19:31:11.037Z,97571.16
2023-01-19T19:33:38.971Z,97576.34
2023-01-19T19:36:06.938Z,97572.03
2023-01-19T19:38:34.883Z,97573.75
2023-01-19T19:41:08.520Z,97568.56
2023-01-19T19:43:36.507Z,97569.41
2023-01-19T19:46:08.593Z,97582.31
2023-01-19T19:48:38.186Z,97579.72
2023-01-19T19:51:18.616Z,97583.16
2023-01-19T19:53:46.489Z,97595.19
2023-01-19T19:56:13.720Z,97589.13
2023-01-19T19:58:42.224Z,97594.28
2023-01-19T20:01:21.224Z,97602.00
2023-01-19T20:03:48.624Z,97604.59
2023-01-19T20:06:20.886Z,97604.59
2023-01-19T20:08:52.450Z,97606.31
2023-01-19T20:11:27.562Z,97604.59
2023-01-19T20:13:54.587Z,97606.31
2023-01-19T20:16:23.164Z,97614.03
2023-01-19T20:18:54.146Z,97614.88
2023-01-19T20:21:22.433Z,97615.75
2023-01-19T20:23:51.031Z,97617.53
2023-01-19T20:26:20.854Z,97622.72
2023-01-19T20:28:48.118Z,97630.44
2023-01-19T20:31:21.246Z,97627.03
2023-01-19T20:33:50.472Z,97643.44
2023-01-19T20:36:18.333Z,97633.97
2023-01-19T20:38:45.550Z,97647.75
2023-01-19T20:41:13.235Z,97642.66
2023-01-19T20:43:40.064Z,97644.38
2023-01-19T20:46:06.817Z,97653.84
2023-01-19T20:48:33.572Z,97646.97
2023-01-19T20:51:06.103Z,97650.44
2023-01-19T20:53:33.661Z,97663.41
2023-01-19T20:56:07.278Z,97663.38
2023-01-19T20:58:34.506Z,97667.69
2023-01-19T21:01:09.756Z,97672.84
2023-01-19T21:03:36.492Z,97673.72
2023-01-19T21:06:03.085Z,97675.47
2023-01-19T21:08:29.710Z,97678.03
2023-01-19T21:10:57.204Z,97678.94
2023-01-19T21:13:24.388Z,97680.66
2023-01-19T21:15:50.969Z,97684.94
2023-01-19T21:18:17.553Z,97683.22
2023-01-19T21:20:45.010Z,97695.31
2023-01-19T21:23:11.680Z,97692.75
2023-01-19T21:25:38.509Z,97691.00
2023-01-19T21:28:05.382Z,97693.56
2023-01-19T21:30:32.003Z,97691.00
2023-01-19T21:32:58.630Z,97691.84
2023-01-19T21:35:25.293Z,97696.13
2023-01-19T21:37:52.000Z,97699.59
2023-01-19T21:40:18.986Z,97697.84
2023-01-19T21:42:45.662Z,97702.97
2023-01-19T21:45:12.862Z,97708.16
2023-01-19T21:47:39.609Z,97707.28
2023-01-19T21:50:06.342Z,97711.59
2023-01-19T21:52:33.001Z,97709.06
2023-01-19T21:54:59.694Z,97711.66
2023-01-19T21:57:26.385Z,97713.38
2023-01-19T21:59:53.086Z,97716.78
2023-01-19T22:02:37.168Z,97715.06
2023-01-19T22:05:06.714Z,97718.53
2023-01-19T22:07:33.404Z,97721.09
2023-01-19T22:10:00.077Z,97720.25
2023-01-19T22:12:26.943Z,97726.28
2023-01-19T22:14:53.509Z,97731.44
2023-01-19T22:17:20.440Z,97732.34
2023-01-19T22:19:48.182Z,97736.66
2023-01-19T22:22:15.207Z,97733.19
2023-01-19T22:24:46.611Z,97734.91
2023-01-19T22:27:13.451Z,97744.41
2023-01-19T22:29:40.158Z,97738.38
2023-01-19T22:32:07.080Z,97740.94
2023-01-19T22:34:33.832Z,97750.44
2023-01-19T22:37:01.261Z,97742.69
2023-01-19T22:39:28.350Z,97751.28
2023-01-19T22:41:54.891Z,97752.16
2023-01-19T22:44:22.168Z,97747.84
2023-01-19T22:46:50.875Z,97749.56
2023-01-19T22:49:18.694Z,97749.56
2023-01-19T22:51:45.854Z,97746.94
2023-01-19T22:54:13.152Z,97740.91
2023-01-19T22:56:40.743Z,97756.44
2023-01-19T22:59:07.912Z,97752.97
2023-01-19T23:01:40.528Z,97752.94
2023-01-19T23:04:10.834Z,97759.00
2023-01-19T23:06:37.664Z,97763.28
2023-01-19T23:09:07.512Z,97765.00
2023-01-19T23:11:37.514Z,97772.75
2023-01-19T23:14:07.124Z,97777.06
2023-01-19T23:16:35.155Z,97777.06
2023-01-19T23:19:01.995Z,97778.78
2023-01-19T23:21:30.199Z,97777.94
2023-01-19T23:23:59.491Z,97771.03
2023-01-19T23:26:26.887Z,97778.81
2023-01-19T23:28:55.906Z,97783.09
2023-01-19T23:31:24.337Z,97788.31
2023-01-19T23:33:53.285Z,97793.47
2023-01-19T23:36:21.255Z,97793.47
2023-01-19T23:38:50.143Z,97801.25
2023-01-19T23:41:17.613Z,97801.25
2023-01-19T23:43:44.482Z,97809.00
2023-01-19T23:46:12.146Z,97803.81
2023-01-19T23:48:38.862Z,97806.41
2023-01-19T23:51:10.810Z,97811.53
2023-01-19T23:53:37.982Z,97821.06
2023-01-19T23:56:17.832Z,97821.00
2023-01-19T23:58:48.976Z,97811.50
